sensor_id;sensor_type;location;lat;lon;timestamp;P1;durP1;ratioP1;P2;durP2;ratioP2
78774;SDS011;68119;43.398;3.676;2023-06-10T00:00:05;63.55;;;25.02;;
78774;SDS011;68119;43.398;3.676;2023-06-10T00:02:32;69.88;;;28.17;;
78774;SDS011;68119;43.398;3.676;2023-06-10T00:05:03;68.35;;;28.27;;
78774;SDS011;68119;43.398;3.676;2023-06-10T00:07:29;70.90;;;28.48;;
78774;SDS011;68119;43.398;3.676;2023-06-10T00:10:01;67.15;;;28.70;;
78774;SDS011;68119;43.398;3.676;2023-06-10T00:12:30;66.05;;;29.10;;
78774;SDS011;68119;43.398;3.676;2023-06-10T00:15:06;80.65;;;28.95;;
78774;SDS011;68119;43.398;3.676;2023-06-10T00:17:37;76.13;;;29.52;;
78774;SDS011;68119;43.398;3.676;2023-06-10T00:20:19;79.63;;;30.38;;
78774;SDS011;68119;43.398;3.676;2023-06-10T00:22:52;73.38;;;31.00;;
78774;SDS011;68119;43.398;3.676;2023-06-10T00:25:18;92.07;;;30.13;;
78774;SDS011;68119;43.398;3.676;2023-06-10T00:27:52;73.10;;;30.10;;
78774;SDS011;68119;43.398;3.676;2023-06-10T00:30:20;78.40;;;30.95;;
78774;SDS011;68119;43.398;3.676;2023-06-10T00:32:47;85.25;;;31.52;;
78774;SDS011;68119;43.398;3.676;2023-06-10T00:35:18;82.68;;;32.67;;
78774;SDS011;68119;43.398;3.676;2023-06-10T00:37:50;102.18;;;33.78;;
78774;SDS011;68119;43.398;3.676;2023-06-10T00:40:18;86.70;;;31.85;;
78774;SDS011;68119;43.398;3.676;2023-06-10T00:45:17;89.80;;;30.98;;
78774;SDS011;68119;43.398;3.676;2023-06-10T00:47:46;87.28;;;32.10;;
78774;SDS011;68119;43.398;3.676;2023-06-10T00:50:12;88.63;;;32.45;;
78774;SDS011;68119;43.398;3.676;2023-06-10T00:52:41;88.45;;;30.45;;
78774;SDS011;68119;43.398;3.676;2023-06-10T00:55:16;81.43;;;30.13;;
78774;SDS011;68119;43.398;3.676;2023-06-10T00:57:45;75.78;;;29.92;;
78774;SDS011;68119;43.398;3.676;2023-06-10T01:00:17;93.45;;;27.88;;
78774;SDS011;68119;43.398;3.676;2023-06-10T01:02:58;72.55;;;26.58;;
78774;SDS011;68119;43.398;3.676;2023-06-10T01:05:27;78.78;;;26.48;;
78774;SDS011;68119;43.398;3.676;2023-06-10T01:10:27;76.95;;;26.88;;
78774;SDS011;68119;43.398;3.676;2023-06-10T01:15:24;77.70;;;26.75;;
78774;SDS011;68119;43.398;3.676;2023-06-10T01:17:55;79.30;;;26.20;;
78774;SDS011;68119;43.398;3.676;2023-06-10T01:20:23;72.70;;;25.95;;
78774;SDS011;68119;43.398;3.676;2023-06-10T01:22:51;69.45;;;25.00;;
78774;SDS011;68119;43.398;3.676;2023-06-10T01:25:26;80.38;;;26.42;;
78774;SDS011;68119;43.398;3.676;2023-06-10T01:27:58;83.88;;;26.98;;
78774;SDS011;68119;43.398;3.676;2023-06-10T01:30:27;68.55;;;25.45;;
78774;SDS011;68119;43.398;3.676;2023-06-10T01:33:01;75.90;;;25.48;;
78774;SDS011;68119;43.398;3.676;2023-06-10T01:35:34;68.97;;;25.73;;
78774;SDS011;68119;43.398;3.676;2023-06-10T01:38:05;73.90;;;26.60;;
78774;SDS011;68119;43.398;3.676;2023-06-10T01:40:32;72.65;;;27.02;;
78774;SDS011;68119;43.398;3.676;2023-06-10T01:43:04;94.15;;;28.92;;
78774;SDS011;68119;43.398;3.676;2023-06-10T01:45:35;95.75;;;30.25;;
78774;SDS011;68119;43.398;3.676;2023-06-10T01:48:01;92.20;;;32.05;;
78774;SDS011;68119;43.398;3.676;2023-06-10T01:50:27;105.63;;;32.55;;
78774;SDS011;68119;43.398;3.676;2023-06-10T01:53:02;95.35;;;32.65;;
78774;SDS011;68119;43.398;3.676;2023-06-10T01:55:36;102.88;;;33.60;;
78774;SDS011;68119;43.398;3.676;2023-06-10T01:58:05;90.13;;;31.80;;
78774;SDS011;68119;43.398;3.676;2023-06-10T02:00:34;120.78;;;35.63;;
78774;SDS011;68119;43.398;3.676;2023-06-10T02:03:00;104.55;;;35.25;;
78774;SDS011;68119;43.398;3.676;2023-06-10T02:05:39;99.05;;;33.45;;
78774;SDS011;68119;43.398;3.676;2023-06-10T02:08:08;114.22;;;35.08;;
78774;SDS011;68119;43.398;3.676;2023-06-10T02:10:35;89.53;;;33.97;;
78774;SDS011;68119;43.398;3.676;2023-06-10T02:13:03;111.53;;;35.90;;
78774;SDS011;68119;43.398;3.676;2023-06-10T02:15:30;99.15;;;34.55;;
78774;SDS011;68119;43.398;3.676;2023-06-10T02:18:04;96.15;;;35.78;;
78774;SDS011;68119;43.398;3.676;2023-06-10T02:23:07;99.90;;;34.25;;
78774;SDS011;68119;43.398;3.676;2023-06-10T02:25:36;81.82;;;35.72;;
78774;SDS011;68119;43.398;3.676;2023-06-10T02:28:03;126.18;;;36.65;;
78774;SDS011;68119;43.398;3.676;2023-06-10T02:30:35;114.90;;;35.00;;
78774;SDS011;68119;43.398;3.676;2023-06-10T02:33:01;100.93;;;36.65;;
78774;SDS011;68119;43.398;3.676;2023-06-10T02:35:28;117.28;;;34.45;;
78774;SDS011;68119;43.398;3.676;2023-06-10T02:37:57;109.85;;;37.15;;
78774;SDS011;68119;43.398;3.676;2023-06-10T02:40:25;126.20;;;38.28;;
78774;SDS011;68119;43.398;3.676;2023-06-10T02:42:53;94.65;;;34.35;;
78774;SDS011;68119;43.398;3.676;2023-06-10T02:45:25;96.15;;;34.78;;
78774;SDS011;68119;43.398;3.676;2023-06-10T02:47:54;93.90;;;35.47;;
78774;SDS011;68119;43.398;3.676;2023-06-10T02:50:23;111.47;;;36.25;;
78774;SDS011;68119;43.398;3.676;2023-06-10T02:52:52;80.18;;;34.72;;
78774;SDS011;68119;43.398;3.676;2023-06-10T02:55:21;99.57;;;37.53;;
78774;SDS011;68119;43.398;3.676;2023-06-10T02:57:51;102.95;;;37.70;;
78774;SDS011;68119;43.398;3.676;2023-06-10T03:00:25;88.93;;;34.63;;
78774;SDS011;68119;43.398;3.676;2023-06-10T03:02:52;115.35;;;39.25;;
78774;SDS011;68119;43.398;3.676;2023-06-10T03:05:22;94.15;;;37.72;;
78774;SDS011;68119;43.398;3.676;2023-06-10T03:07:53;117.28;;;38.70;;
78774;SDS011;68119;43.398;3.676;2023-06-10T03:10:25;134.68;;;41.03;;
78774;SDS011;68119;43.398;3.676;2023-06-10T03:12:54;130.68;;;39.95;;
78774;SDS011;68119;43.398;3.676;2023-06-10T03:15:26;96.28;;;37.85;;
78774;SDS011;68119;43.398;3.676;2023-06-10T03:17:54;107.10;;;41.17;;
78774;SDS011;68119;43.398;3.676;2023-06-10T03:20:22;116.38;;;45.85;;
78774;SDS011;68119;43.398;3.676;2023-06-10T03:22:53;113.55;;;46.20;;
78774;SDS011;68119;43.398;3.676;2023-06-10T03:25:22;131.85;;;47.30;;
78774;SDS011;68119;43.398;3.676;2023-06-10T03:27:48;131.60;;;49.35;;
78774;SDS011;68119;43.398;3.676;2023-06-10T03:30:24;126.63;;;49.67;;
78774;SDS011;68119;43.398;3.676;2023-06-10T03:32:55;126.90;;;50.92;;
78774;SDS011;68119;43.398;3.676;2023-06-10T03:35:26;156.85;;;53.78;;
78774;SDS011;68119;43.398;3.676;2023-06-10T03:37:59;131.63;;;51.60;;
78774;SDS011;68119;43.398;3.676;2023-06-10T03:40:28;157.63;;;54.20;;
78774;SDS011;68119;43.398;3.676;2023-06-10T03:45:27;135.27;;;52.40;;
78774;SDS011;68119;43.398;3.676;2023-06-10T03:47:53;126.00;;;52.50;;
78774;SDS011;68119;43.398;3.676;2023-06-10T03:50:23;131.85;;;51.67;;
78774;SDS011;68119;43.398;3.676;2023-06-10T03:52:55;128.02;;;53.00;;
78774;SDS011;68119;43.398;3.676;2023-06-10T03:55:23;159.90;;;55.83;;
78774;SDS011;68119;43.398;3.676;2023-06-10T03:57:49;136.05;;;55.05;;
78774;SDS011;68119;43.398;3.676;2023-06-10T04:00:28;113.53;;;50.10;;
78774;SDS011;68119;43.398;3.676;2023-06-10T04:02:55;143.02;;;52.95;;
78774;SDS011;68119;43.398;3.676;2023-06-10T04:05:41;158.60;;;57.15;;
78774;SDS011;68119;43.398;3.676;2023-06-10T04:08:10;144.00;;;56.25;;
78774;SDS011;68119;43.398;3.676;2023-06-10T04:10:36;148.63;;;57.65;;
78774;SDS011;68119;43.398;3.676;2023-06-10T04:13:15;123.72;;;53.80;;
78774;SDS011;68119;43.398;3.676;2023-06-10T04:15:44;147.25;;;54.10;;
78774;SDS011;68119;43.398;3.676;2023-06-10T04:18:13;179.73;;;57.13;;
78774;SDS011;68119;43.398;3.676;2023-06-10T04:20:42;141.77;;;56.25;;
78774;SDS011;68119;43.398;3.676;2023-06-10T04:23:10;142.93;;;56.47;;
78774;SDS011;68119;43.398;3.676;2023-06-10T04:25:40;135.70;;;51.33;;
78774;SDS011;68119;43.398;3.676;2023-06-10T04:28:09;131.73;;;52.38;;
78774;SDS011;68119;43.398;3.676;2023-06-10T04:30:35;136.57;;;52.88;;
78774;SDS011;68119;43.398;3.676;2023-06-10T04:33:04;147.18;;;54.78;;
78774;SDS011;68119;43.398;3.676;2023-06-10T04:35:37;137.15;;;51.40;;
78774;SDS011;68119;43.398;3.676;2023-06-10T04:38:09;135.32;;;52.67;;
78774;SDS011;68119;43.398;3.676;2023-06-10T04:40:41;174.23;;;56.50;;
78774;SDS011;68119;43.398;3.676;2023-06-10T04:43:10;138.57;;;52.67;;
78774;SDS011;68119;43.398;3.676;2023-06-10T04:45:46;147.98;;;55.22;;
78774;SDS011;68119;43.398;3.676;2023-06-10T04:48:19;122.78;;;51.15;;
78774;SDS011;68119;43.398;3.676;2023-06-10T04:50:45;122.82;;;50.95;;
78774;SDS011;68119;43.398;3.676;2023-06-10T04:53:17;130.80;;;52.42;;
78774;SDS011;68119;43.398;3.676;2023-06-10T04:55:45;127.78;;;52.40;;
78774;SDS011;68119;43.398;3.676;2023-06-10T04:58:15;150.27;;;53.50;;
78774;SDS011;68119;43.398;3.676;2023-06-10T05:00:44;124.05;;;51.55;;
78774;SDS011;68119;43.398;3.676;2023-06-10T05:03:17;123.25;;;51.50;;
78774;SDS011;68119;43.398;3.676;2023-06-10T05:05:43;122.20;;;50.72;;
78774;SDS011;68119;43.398;3.676;2023-06-10T05:08:10;129.40;;;50.33;;
78774;SDS011;68119;43.398;3.676;2023-06-10T05:10:38;139.05;;;50.88;;
78774;SDS011;68119;43.398;3.676;2023-06-10T05:13:05;124.10;;;49.15;;
78774;SDS011;68119;43.398;3.676;2023-06-10T05:15:35;118.97;;;49.00;;
78774;SDS011;68119;43.398;3.676;2023-06-10T05:18:02;129.45;;;50.25;;
78774;SDS011;68119;43.398;3.676;2023-06-10T05:20:29;146.45;;;52.40;;
78774;SDS011;68119;43.398;3.676;2023-06-10T05:23:00;109.90;;;46.92;;
78774;SDS011;68119;43.398;3.676;2023-06-10T05:25:32;104.10;;;44.10;;
78774;SDS011;68119;43.398;3.676;2023-06-10T05:28:07;96.20;;;42.15;;
78774;SDS011;68119;43.398;3.676;2023-06-10T05:30:37;90.10;;;42.97;;
78774;SDS011;68119;43.398;3.676;2023-06-10T05:33:16;94.90;;;42.47;;
78774;SDS011;68119;43.398;3.676;2023-06-10T05:35:42;87.95;;;40.33;;
78774;SDS011;68119;43.398;3.676;2023-06-10T05:38:14;85.60;;;41.60;;
78774;SDS011;68119;43.398;3.676;2023-06-10T05:40:40;82.43;;;39.00;;
78774;SDS011;68119;43.398;3.676;2023-06-10T05:43:12;86.85;;;39.38;;
78774;SDS011;68119;43.398;3.676;2023-06-10T05:45:42;79.35;;;37.10;;
78774;SDS011;68119;43.398;3.676;2023-06-10T05:48:15;84.28;;;39.30;;
78774;SDS011;68119;43.398;3.676;2023-06-10T05:50:44;74.82;;;36.28;;
78774;SDS011;68119;43.398;3.676;2023-06-10T05:53:16;88.38;;;38.15;;
78774;SDS011;68119;43.398;3.676;2023-06-10T05:55:43;59.50;;;33.78;;
78774;SDS011;68119;43.398;3.676;2023-06-10T05:58:12;82.45;;;38.80;;
78774;SDS011;68119;43.398;3.676;2023-06-10T06:00:41;67.30;;;34.72;;
78774;SDS011;68119;43.398;3.676;2023-06-10T06:03:10;78.22;;;38.85;;
78774;SDS011;68119;43.398;3.676;2023-06-10T06:05:36;66.03;;;33.55;;
78774;SDS011;68119;43.398;3.676;2023-06-10T06:08:04;66.03;;;34.50;;
78774;SDS011;68119;43.398;3.676;2023-06-10T06:10:33;53.10;;;31.67;;
78774;SDS011;68119;43.398;3.676;2023-06-10T06:12:59;51.42;;;30.33;;
78774;SDS011;68119;43.398;3.676;2023-06-10T06:15:28;64.90;;;34.38;;
78774;SDS011;68119;43.398;3.676;2023-06-10T06:17:54;44.90;;;25.48;;
78774;SDS011;68119;43.398;3.676;2023-06-10T06:20:23;49.05;;;28.00;;
78774;SDS011;68119;43.398;3.676;2023-06-10T06:22:58;47.33;;;26.20;;
78774;SDS011;68119;43.398;3.676;2023-06-10T06:25:27;43.70;;;25.85;;
78774;SDS011;68119;43.398;3.676;2023-06-10T06:27:55;45.28;;;25.98;;
78774;SDS011;68119;43.398;3.676;2023-06-10T06:30:30;47.50;;;23.48;;
78774;SDS011;68119;43.398;3.676;2023-06-10T06:33:00;39.17;;;24.15;;
78774;SDS011;68119;43.398;3.676;2023-06-10T06:35:35;40.65;;;25.15;;
78774;SDS011;68119;43.398;3.676;2023-06-10T06:38:03;35.53;;;22.23;;
78774;SDS011;68119;43.398;3.676;2023-06-10T06:40:30;35.15;;;22.67;;
78774;SDS011;68119;43.398;3.676;2023-06-10T06:42:56;38.70;;;23.48;;
78774;SDS011;68119;43.398;3.676;2023-06-10T06:45:25;42.13;;;23.33;;
78774;SDS011;68119;43.398;3.676;2023-06-10T06:50:23;30.85;;;19.42;;
78774;SDS011;68119;43.398;3.676;2023-06-10T06:52:51;30.80;;;18.48;;
78774;SDS011;68119;43.398;3.676;2023-06-10T06:55:23;34.00;;;20.23;;
78774;SDS011;68119;43.398;3.676;2023-06-10T06:57:49;32.00;;;19.38;;
78774;SDS011;68119;43.398;3.676;2023-06-10T07:00:23;29.98;;;16.15;;
78774;SDS011;68119;43.398;3.676;2023-06-10T07:02:51;30.65;;;17.15;;
78774;SDS011;68119;43.398;3.676;2023-06-10T07:05:21;20.85;;;14.98;;
78774;SDS011;68119;43.398;3.676;2023-06-10T07:07:50;23.52;;;15.80;;
78774;SDS011;68119;43.398;3.676;2023-06-10T07:10:29;26.27;;;15.32;;
78774;SDS011;68119;43.398;3.676;2023-06-10T07:13:01;20.65;;;13.90;;
78774;SDS011;68119;43.398;3.676;2023-06-10T07:15:30;26.13;;;14.38;;
78774;SDS011;68119;43.398;3.676;2023-06-10T07:20:29;23.02;;;13.13;;
78774;SDS011;68119;43.398;3.676;2023-06-10T07:22:55;19.60;;;12.68;;
78774;SDS011;68119;43.398;3.676;2023-06-10T07:25:24;20.25;;;11.00;;
78774;SDS011;68119;43.398;3.676;2023-06-10T07:27:50;24.92;;;10.75;;
78774;SDS011;68119;43.398;3.676;2023-06-10T07:30:16;21.92;;;13.35;;
78774;SDS011;68119;43.398;3.676;2023-06-10T07:32:43;17.30;;;11.57;;
78774;SDS011;68119;43.398;3.676;2023-06-10T07:35:11;17.05;;;12.90;;
78774;SDS011;68119;43.398;3.676;2023-06-10T07:37:40;20.17;;;11.10;;
78774;SDS011;68119;43.398;3.676;2023-06-10T07:40:09;19.08;;;10.63;;
78774;SDS011;68119;43.398;3.676;2023-06-10T07:42:37;16.77;;;10.50;;
78774;SDS011;68119;43.398;3.676;2023-06-10T07:45:06;18.52;;;11.73;;
78774;SDS011;68119;43.398;3.676;2023-06-10T07:47:34;17.73;;;11.15;;
78774;SDS011;68119;43.398;3.676;2023-06-10T07:52:32;17.00;;;10.68;;
78774;SDS011;68119;43.398;3.676;2023-06-10T07:54:58;16.90;;;10.02;;
78774;SDS011;68119;43.398;3.676;2023-06-10T07:57:26;29.08;;;11.88;;
78774;SDS011;68119;43.398;3.676;2023-06-10T07:59:55;20.27;;;11.20;;
78774;SDS011;68119;43.398;3.676;2023-06-10T08:02:22;18.95;;;11.73;;
78774;SDS011;68119;43.398;3.676;2023-06-10T08:05:06;15.10;;;9.93;;
78774;SDS011;68119;43.398;3.676;2023-06-10T08:07:38;15.30;;;10.10;;
78774;SDS011;68119;43.398;3.676;2023-06-10T08:10:08;17.20;;;9.63;;
78774;SDS011;68119;43.398;3.676;2023-06-10T08:12:42;15.98;;;9.18;;
78774;SDS011;68119;43.398;3.676;2023-06-10T08:15:09;19.98;;;8.88;;
78774;SDS011;68119;43.398;3.676;2023-06-10T08:17:38;12.55;;;8.38;;
78774;SDS011;68119;43.398;3.676;2023-06-10T08:20:05;19.20;;;9.77;;
78774;SDS011;68119;43.398;3.676;2023-06-10T08:22:36;12.25;;;8.68;;
78774;SDS011;68119;43.398;3.676;2023-06-10T08:27:34;15.15;;;8.65;;
78774;SDS011;68119;43.398;3.676;2023-06-10T08:30:09;11.35;;;7.57;;
78774;SDS011;68119;43.398;3.676;2023-06-10T08:32:38;12.32;;;7.97;;
78774;SDS011;68119;43.398;3.676;2023-06-10T08:35:07;15.82;;;7.10;;
78774;SDS011;68119;43.398;3.676;2023-06-10T08:37:38;13.05;;;7.20;;
78774;SDS011;68119;43.398;3.676;2023-06-10T08:40:07;13.52;;;6.72;;
78774;SDS011;68119;43.398;3.676;2023-06-10T08:42:39;10.82;;;6.43;;
78774;SDS011;68119;43.398;3.676;2023-06-10T08:45:05;13.43;;;6.68;;
78774;SDS011;68119;43.398;3.676;2023-06-10T08:47:38;12.80;;;6.95;;
78774;SDS011;68119;43.398;3.676;2023-06-10T08:50:07;10.60;;;7.40;;
78774;SDS011;68119;43.398;3.676;2023-06-10T08:52:36;10.40;;;6.28;;
78774;SDS011;68119;43.398;3.676;2023-06-10T08:55:10;11.50;;;5.80;;
78774;SDS011;68119;43.398;3.676;2023-06-10T08:57:40;12.27;;;6.07;;
78774;SDS011;68119;43.398;3.676;2023-06-10T09:00:07;9.48;;;5.75;;
78774;SDS011;68119;43.398;3.676;2023-06-10T09:02:37;10.02;;;6.38;;
78774;SDS011;68119;43.398;3.676;2023-06-10T09:05:06;10.27;;;5.82;;
78774;SDS011;68119;43.398;3.676;2023-06-10T09:07:32;10.73;;;5.90;;
78774;SDS011;68119;43.398;3.676;2023-06-10T09:10:01;10.25;;;5.95;;
78774;SDS011;68119;43.398;3.676;2023-06-10T09:12:29;9.65;;;6.13;;
78774;SDS011;68119;43.398;3.676;2023-06-10T09:14:58;11.35;;;6.03;;
78774;SDS011;68119;43.398;3.676;2023-06-10T09:17:24;11.10;;;5.80;;
78774;SDS011;68119;43.398;3.676;2023-06-10T09:19:53;9.70;;;5.70;;
78774;SDS011;68119;43.398;3.676;2023-06-10T09:22:21;10.47;;;6.20;;
78774;SDS011;68119;43.398;3.676;2023-06-10T09:24:50;12.73;;;6.18;;
78774;SDS011;68119;43.398;3.676;2023-06-10T09:27:16;9.75;;;5.78;;
78774;SDS011;68119;43.398;3.676;2023-06-10T09:29:54;9.93;;;5.55;;
78774;SDS011;68119;43.398;3.676;2023-06-10T09:32:25;14.60;;;6.03;;
78774;SDS011;68119;43.398;3.676;2023-06-10T09:34:53;10.27;;;5.43;;
78774;SDS011;68119;43.398;3.676;2023-06-10T09:37:21;9.27;;;5.68;;
78774;SDS011;68119;43.398;3.676;2023-06-10T09:40:04;12.43;;;5.72;;
78774;SDS011;68119;43.398;3.676;2023-06-10T09:42:36;13.13;;;5.78;;
78774;SDS011;68119;43.398;3.676;2023-06-10T09:45:03;13.82;;;6.35;;
78774;SDS011;68119;43.398;3.676;2023-06-10T09:47:29;13.05;;;5.80;;
78774;SDS011;68119;43.398;3.676;2023-06-10T09:49:58;11.98;;;6.13;;
78774;SDS011;68119;43.398;3.676;2023-06-10T09:52:27;12.80;;;5.93;;
78774;SDS011;68119;43.398;3.676;2023-06-10T09:55:03;9.63;;;5.57;;
78774;SDS011;68119;43.398;3.676;2023-06-10T09:57:34;10.52;;;5.72;;
78774;SDS011;68119;43.398;3.676;2023-06-10T10:00:09;11.00;;;5.18;;
78774;SDS011;68119;43.398;3.676;2023-06-10T10:02:48;10.45;;;5.85;;
78774;SDS011;68119;43.398;3.676;2023-06-10T10:05:16;15.43;;;6.03;;
78774;SDS011;68119;43.398;3.676;2023-06-10T10:07:48;11.27;;;5.60;;
78774;SDS011;68119;43.398;3.676;2023-06-10T10:10:19;12.55;;;6.05;;
78774;SDS011;68119;43.398;3.676;2023-06-10T10:12:48;12.32;;;6.22;;
78774;SDS011;68119;43.398;3.676;2023-06-10T10:15:15;11.25;;;5.90;;
78774;SDS011;68119;43.398;3.676;2023-06-10T10:17:49;10.43;;;5.47;;
78774;SDS011;68119;43.398;3.676;2023-06-10T10:20:22;15.05;;;6.70;;
78774;SDS011;68119;43.398;3.676;2023-06-10T10:22:53;11.15;;;5.45;;
78774;SDS011;68119;43.398;3.676;2023-06-10T10:25:29;10.57;;;5.97;;
78774;SDS011;68119;43.398;3.676;2023-06-10T10:28:02;10.82;;;5.80;;
78774;SDS011;68119;43.398;3.676;2023-06-10T10:30:34;11.43;;;5.82;;
78774;SDS011;68119;43.398;3.676;2023-06-10T10:33:16;14.43;;;6.20;;
78774;SDS011;68119;43.398;3.676;2023-06-10T10:35:48;12.65;;;5.70;;
78774;SDS011;68119;43.398;3.676;2023-06-10T10:38:18;11.05;;;5.88;;
78774;SDS011;68119;43.398;3.676;2023-06-10T10:40:47;13.38;;;6.03;;
78774;SDS011;68119;43.398;3.676;2023-06-10T10:43:16;12.02;;;5.82;;
78774;SDS011;68119;43.398;3.676;2023-06-10T10:45:45;13.32;;;6.32;;
78774;SDS011;68119;43.398;3.676;2023-06-10T10:48:16;12.18;;;5.90;;
78774;SDS011;68119;43.398;3.676;2023-06-10T10:50:43;16.05;;;6.22;;
78774;SDS011;68119;43.398;3.676;2023-06-10T10:53:11;14.13;;;6.40;;
78774;SDS011;68119;43.398;3.676;2023-06-10T10:55:57;12.50;;;6.18;;
78774;SDS011;68119;43.398;3.676;2023-06-10T10:58:26;15.13;;;6.15;;
78774;SDS011;68119;43.398;3.676;2023-06-10T11:00:56;14.25;;;6.57;;
78774;SDS011;68119;43.398;3.676;2023-06-10T11:03:31;16.73;;;6.50;;
78774;SDS011;68119;43.398;3.676;2023-06-10T11:06:11;13.43;;;6.50;;
78774;SDS011;68119;43.398;3.676;2023-06-10T11:16:37;13.95;;;6.43;;
78774;SDS011;68119;43.398;3.676;2023-06-10T11:19:04;17.13;;;6.68;;
78774;SDS011;68119;43.398;3.676;2023-06-10T11:22:16;14.02;;;6.78;;
78774;SDS011;68119;43.398;3.676;2023-06-10T11:24:20;11.02;;;5.80;;
78774;SDS011;68119;43.398;3.676;2023-06-10T11:26:46;15.80;;;6.47;;
78774;SDS011;68119;43.398;3.676;2023-06-10T11:29:12;15.27;;;6.88;;
78774;SDS011;68119;43.398;3.676;2023-06-10T11:31:45;14.27;;;7.15;;
78774;SDS011;68119;43.398;3.676;2023-06-10T11:34:12;15.52;;;6.65;;
78774;SDS011;68119;43.398;3.676;2023-06-10T11:36:40;15.45;;;6.28;;
78774;SDS011;68119;43.398;3.676;2023-06-10T11:39:08;12.05;;;5.60;;
78774;SDS011;68119;43.398;3.676;2023-06-10T11:41:34;15.30;;;5.90;;
78774;SDS011;68119;43.398;3.676;2023-06-10T11:44:06;11.50;;;5.57;;
78774;SDS011;68119;43.398;3.676;2023-06-10T11:46:33;10.95;;;5.07;;
78774;SDS011;68119;43.398;3.676;2023-06-10T11:49:02;11.70;;;5.25;;
78774;SDS011;68119;43.398;3.676;2023-06-10T11:51:32;10.77;;;4.90;;
78774;SDS011;68119;43.398;3.676;2023-06-10T11:54:02;15.10;;;5.40;;
78774;SDS011;68119;43.398;3.676;2023-06-10T11:56:34;11.73;;;4.97;;
78774;SDS011;68119;43.398;3.676;2023-06-10T11:59:05;12.35;;;4.90;;
78774;SDS011;68119;43.398;3.676;2023-06-10T12:01:42;11.82;;;5.40;;
78774;SDS011;68119;43.398;3.676;2023-06-10T12:04:12;10.82;;;5.00;;
78774;SDS011;68119;43.398;3.676;2023-06-10T12:06:44;12.30;;;5.50;;
78774;SDS011;68119;43.398;3.676;2023-06-10T12:09:45;18.17;;;5.55;;
78774;SDS011;68119;43.398;3.676;2023-06-10T12:12:08;16.52;;;5.65;;
78774;SDS011;68119;43.398;3.676;2023-06-10T12:14:54;11.75;;;5.03;;
78774;SDS011;68119;43.398;3.676;2023-06-10T12:19:59;10.88;;;5.07;;
78774;SDS011;68119;43.398;3.676;2023-06-10T12:22:25;11.40;;;5.45;;
78774;SDS011;68119;43.398;3.676;2023-06-10T12:25:03;12.70;;;5.57;;
78774;SDS011;68119;43.398;3.676;2023-06-10T12:27:31;8.82;;;4.72;;
78774;SDS011;68119;43.398;3.676;2023-06-10T12:29:59;13.48;;;5.18;;
78774;SDS011;68119;43.398;3.676;2023-06-10T12:32:41;13.18;;;4.90;;
78774;SDS011;68119;43.398;3.676;2023-06-10T12:35:08;10.77;;;4.80;;
78774;SDS011;68119;43.398;3.676;2023-06-10T12:37:37;11.15;;;5.10;;
78774;SDS011;68119;43.398;3.676;2023-06-10T12:40:09;11.05;;;4.85;;
78774;SDS011;68119;43.398;3.676;2023-06-10T12:42:38;10.45;;;4.78;;
78774;SDS011;68119;43.398;3.676;2023-06-10T12:45:07;11.80;;;5.95;;
78774;SDS011;68119;43.398;3.676;2023-06-10T12:47:36;10.57;;;5.50;;
78774;SDS011;68119;43.398;3.676;2023-06-10T12:50:04;14.25;;;5.55;;
78774;SDS011;68119;43.398;3.676;2023-06-10T12:52:31;12.57;;;5.18;;
78774;SDS011;68119;43.398;3.676;2023-06-10T12:54:58;11.95;;;5.05;;
78774;SDS011;68119;43.398;3.676;2023-06-10T12:57:28;13.00;;;5.13;;
78774;SDS011;68119;43.398;3.676;2023-06-10T12:59:58;11.57;;;5.47;;
78774;SDS011;68119;43.398;3.676;2023-06-10T13:02:31;11.50;;;5.45;;
78774;SDS011;68119;43.398;3.676;2023-06-10T13:04:58;10.40;;;4.97;;
78774;SDS011;68119;43.398;3.676;2023-06-10T13:07:24;12.43;;;5.30;;
78774;SDS011;68119;43.398;3.676;2023-06-10T13:09:50;11.30;;;5.10;;
78774;SDS011;68119;43.398;3.676;2023-06-10T13:12:18;11.18;;;5.10;;
78774;SDS011;68119;43.398;3.676;2023-06-10T13:14:45;13.45;;;5.57;;
78774;SDS011;68119;43.398;3.676;2023-06-10T13:17:12;13.07;;;4.80;;
78774;SDS011;68119;43.398;3.676;2023-06-10T13:19:43;16.98;;;5.32;;
78774;SDS011;68119;43.398;3.676;2023-06-10T13:22:09;10.77;;;4.88;;
78774;SDS011;68119;43.398;3.676;2023-06-10T13:24:35;9.90;;;4.78;;
78774;SDS011;68119;43.398;3.676;2023-06-10T13:27:07;12.80;;;4.85;;
78774;SDS011;68119;43.398;3.676;2023-06-10T13:29:36;12.00;;;5.57;;
78774;SDS011;68119;43.398;3.676;2023-06-10T13:32:05;10.73;;;5.38;;
78774;SDS011;68119;43.398;3.676;2023-06-10T13:34:35;11.50;;;5.20;;
78774;SDS011;68119;43.398;3.676;2023-06-10T13:37:04;17.15;;;5.70;;
78774;SDS011;68119;43.398;3.676;2023-06-10T13:39:35;9.60;;;5.13;;
78774;SDS011;68119;43.398;3.676;2023-06-10T13:42:01;12.85;;;5.45;;
78774;SDS011;68119;43.398;3.676;2023-06-10T13:44:30;11.32;;;5.70;;
78774;SDS011;68119;43.398;3.676;2023-06-10T13:47:03;11.27;;;5.75;;
78774;SDS011;68119;43.398;3.676;2023-06-10T13:49:32;14.85;;;5.68;;
78774;SDS011;68119;43.398;3.676;2023-06-10T13:52:03;12.95;;;5.82;;
78774;SDS011;68119;43.398;3.676;2023-06-10T13:54:32;10.85;;;5.65;;
78774;SDS011;68119;43.398;3.676;2023-06-10T13:57:01;12.18;;;5.43;;
78774;SDS011;68119;43.398;3.676;2023-06-10T13:59:27;11.63;;;6.05;;
78774;SDS011;68119;43.398;3.676;2023-06-10T14:01:56;12.95;;;5.63;;
78774;SDS011;68119;43.398;3.676;2023-06-10T14:04:22;14.80;;;5.68;;
78774;SDS011;68119;43.398;3.676;2023-06-10T14:06:51;14.35;;;5.50;;
78774;SDS011;68119;43.398;3.676;2023-06-10T14:09:25;13.95;;;5.70;;
78774;SDS011;68119;43.398;3.676;2023-06-10T14:11:53;12.65;;;5.97;;
78774;SDS011;68119;43.398;3.676;2023-06-10T14:14:22;13.85;;;5.95;;
78774;SDS011;68119;43.398;3.676;2023-06-10T14:16:54;15.65;;;5.53;;
78774;SDS011;68119;43.398;3.676;2023-06-10T14:19:25;16.33;;;5.38;;
78774;SDS011;68119;43.398;3.676;2023-06-10T14:21:54;12.05;;;5.32;;
78774;SDS011;68119;43.398;3.676;2023-06-10T14:24:20;14.23;;;5.30;;
78774;SDS011;68119;43.398;3.676;2023-06-10T14:26:49;13.43;;;4.80;;
78774;SDS011;68119;43.398;3.676;2023-06-10T14:29:15;11.48;;;4.57;;
78774;SDS011;68119;43.398;3.676;2023-06-10T14:31:44;10.02;;;4.75;;
78774;SDS011;68119;43.398;3.676;2023-06-10T14:34:13;12.07;;;5.25;;
78774;SDS011;68119;43.398;3.676;2023-06-10T14:36:39;12.60;;;5.68;;
78774;SDS011;68119;43.398;3.676;2023-06-10T14:39:08;11.38;;;5.70;;
78774;SDS011;68119;43.398;3.676;2023-06-10T14:41:36;16.73;;;6.03;;
78774;SDS011;68119;43.398;3.676;2023-06-10T14:44:05;16.63;;;6.07;;
78774;SDS011;68119;43.398;3.676;2023-06-10T14:46:31;17.75;;;6.38;;
78774;SDS011;68119;43.398;3.676;2023-06-10T14:48:57;17.17;;;7.00;;
78774;SDS011;68119;43.398;3.676;2023-06-10T14:51:24;14.25;;;6.47;;
78774;SDS011;68119;43.398;3.676;2023-06-10T14:53:52;13.82;;;6.45;;
78774;SDS011;68119;43.398;3.676;2023-06-10T14:56:18;15.73;;;6.60;;
78774;SDS011;68119;43.398;3.676;2023-06-10T14:58:45;20.25;;;7.15;;
78774;SDS011;68119;43.398;3.676;2023-06-10T15:01:16;14.75;;;7.30;;
78774;SDS011;68119;43.398;3.676;2023-06-10T15:03:48;16.95;;;7.05;;
78774;SDS011;68119;43.398;3.676;2023-06-10T15:06:16;14.30;;;6.53;;
78774;SDS011;68119;43.398;3.676;2023-06-10T15:08:47;16.98;;;7.45;;
78774;SDS011;68119;43.398;3.676;2023-06-10T15:11:16;22.30;;;8.02;;
78774;SDS011;68119;43.398;3.676;2023-06-10T15:13:46;23.98;;;8.02;;